createdAt,value
2023-10-21T00:01:58.913Z,24.83
2023-10-21T00:04:45.172Z,24.13
2023-10-21T00:07:32.353Z,19.10
2023-10-21T00:10:18.630Z,18.40
2023-10-21T00:13:05.224Z,13.60
2023-10-21T00:15:50.839Z,15.27
2023-10-21T00:18:36.815Z,13.07
2023-10-21T00:21:23.064Z,19.00
2023-10-21T00:24:09.338Z,19.40
2023-10-21T00:26:55.389Z,26.75
2023-10-21T00:29:41.266Z,27.52
2023-10-21T00:32:26.781Z,27.10
2023-10-21T00:35:13.213Z,29.77
2023-10-21T00:37:59.172Z,18.50
2023-10-21T00:40:56.910Z,23.95
2023-10-21T00:43:43.890Z,32.95
2023-10-21T00:46:29.743Z,20.83
2023-10-21T00:49:15.520Z,20.85
2023-10-21T00:52:02.114Z,21.60
2023-10-21T00:54:47.706Z,20.65
2023-10-21T00:57:33.701Z,19.45
2023-10-21T01:00:20.128Z,24.65
2023-10-21T01:03:06.449Z,22.95
2023-10-21T01:05:53.935Z,21.75
2023-10-21T01:08:49.591Z,20.38
2023-10-21T01:11:35.848Z,19.08
2023-10-21T01:14:22.008Z,24.30
2023-10-21T01:17:09.580Z,21.73
2023-10-21T01:19:59.195Z,54.97
2023-10-21T01:22:45.609Z,28.38
2023-10-21T01:25:33.596Z,21.25
2023-10-21T01:28:19.143Z,38.63
2023-10-21T01:31:05.670Z,23.38
2023-10-21T01:33:51.151Z,26.25
2023-10-21T01:36:37.503Z,27.23
2023-10-21T01:39:23.057Z,25.35
2023-10-21T01:42:09.597Z,29.00
2023-10-21T01:44:56.771Z,20.30
2023-10-21T01:47:43.008Z,24.98
2023-10-21T01:50:29.525Z,30.83
2023-10-21T01:53:15.498Z,31.52
2023-10-21T01:56:04.898Z,23.27
2023-10-21T01:58:50.736Z,27.75
2023-10-21T02:01:36.475Z,27.15
2023-10-21T02:04:22.686Z,44.38
2023-10-21T02:07:08.942Z,35.03
2023-10-21T02:09:55.243Z,31.67
2023-10-21T02:12:41.329Z,28.20
2023-10-21T02:15:27.145Z,29.70
2023-10-21T02:18:12.788Z,26.88
2023-10-21T02:20:59.647Z,27.17
2023-10-21T02:23:45.780Z,26.70
2023-10-21T02:26:31.586Z,23.15
2023-10-21T02:29:17.366Z,31.52
2023-10-21T02:32:05.156Z,24.02
2023-10-21T02:34:54.986Z,29.02
2023-10-21T02:37:41.895Z,22.92
2023-10-21T02:40:27.713Z,27.38
2023-10-21T02:43:14.007Z,19.55
2023-10-21T02:46:13.680Z,19.33
2023-10-21T02:49:00.049Z,22.02
2023-10-21T02:51:45.587Z,21.13
2023-10-21T02:54:32.295Z,38.95
2023-10-21T02:57:18.246Z,27.77
2023-10-21T03:00:07.162Z,21.88
2023-10-21T03:02:53.311Z,25.65
2023-10-21T03:05:40.684Z,23.08
2023-10-21T03:08:26.177Z,25.33
2023-10-21T03:11:12.373Z,17.77
2023-10-21T03:13:59.063Z,18.70
2023-10-21T03:16:45.724Z,23.70
2023-10-21T03:19:31.354Z,24.63
2023-10-21T03:22:17.850Z,17.33
2023-10-21T03:25:03.759Z,20.52
2023-10-21T03:27:50.042Z,20.80
2023-10-21T03:30:35.766Z,19.65
2023-10-21T03:33:21.674Z,19.10
2023-10-21T03:36:08.599Z,13.13
2023-10-21T03:38:54.755Z,15.55
2023-10-21T03:41:41.190Z,16.75
2023-10-21T03:44:27.357Z,13.18
2023-10-21T03:47:13.141Z,22.92
2023-10-21T03:49:59.164Z,17.70
2023-10-21T03:52:44.655Z,19.17
2023-10-21T03:55:30.781Z,19.92
2023-10-21T03:58:16.529Z,21.63
2023-10-21T04:01:02.438Z,19.75
2023-10-21T04:03:48.449Z,11.98
2023-10-21T04:06:34.439Z,16.63
2023-10-21T04:09:20.146Z,22.35
2023-10-21T04:12:06.437Z,35.70
2023-10-21T04:14:52.356Z,28.83
2023-10-21T04:17:39.601Z,16.70
2023-10-21T04:20:25.249Z,18.52
2023-10-21T04:23:11.039Z,44.80
2023-10-21T04:25:56.717Z,89.70
2023-10-21T04:28:43.449Z,26.50
2023-10-21T04:31:35.191Z,23.30
2023-10-21T04:34:22.624Z,23.13
2023-10-21T04:37:08.865Z,24.20
2023-10-21T04:39:55.187Z,22.00
2023-10-21T04:42:40.749Z,19.02
2023-10-21T04:45:27.012Z,21.05
2023-10-21T04:48:12.950Z,19.25
2023-10-21T04:50:59.133Z,24.67
2023-10-21T04:53:44.690Z,24.10
2023-10-21T04:56:30.536Z,25.58
2023-10-21T04:59:16.089Z,26.13
2023-10-21T05:02:02.317Z,26.67
2023-10-21T05:04:49.608Z,64.00
2023-10-21T05:07:35.634Z,36.70
2023-10-21T05:10:22.550Z,32.22
2023-10-21T05:13:09.553Z,23.25
2023-10-21T05:15:55.787Z,26.58
2023-10-21T05:18:41.864Z,28.50
2023-10-21T05:21:27.929Z,20.00
2023-10-21T05:24:13.978Z,25.02
2023-10-21T05:27:00.287Z,22.27
2023-10-21T05:29:46.416Z,22.35
2023-10-21T05:32:32.110Z,41.42
2023-10-21T05:35:18.730Z,20.90
2023-10-21T05:38:04.484Z,30.38
2023-10-21T05:40:50.567Z,23.15
2023-10-21T05:43:37.641Z,24.98
2023-10-21T05:46:23.836Z,22.30
2023-10-21T05:49:09.869Z,18.63
2023-10-21T05:51:57.227Z,24.83
2023-10-21T05:54:43.463Z,23.02
2023-10-21T05:57:29.952Z,27.95
2023-10-21T06:00:16.381Z,57.95
2023-10-21T06:03:03.398Z,27.02
2023-10-21T06:05:50.096Z,27.90
2023-10-21T06:08:36.045Z,25.35
2023-10-21T06:11:21.697Z,23.55
2023-10-21T06:14:07.971Z,21.63
2023-10-21T06:16:53.674Z,21.50
2023-10-21T06:19:40.528Z,18.67
2023-10-21T06:22:27.478Z,13.77
2023-10-21T06:25:17.330Z,15.73
2023-10-21T06:28:03.193Z,20.23
2023-10-21T06:30:49.355Z,29.80
2023-10-21T06:33:36.778Z,54.95
2023-10-21T06:36:23.726Z,62.45
2023-10-21T06:39:09.609Z,89.65
2023-10-21T06:41:58.583Z,25.45
2023-10-21T06:44:44.932Z,27.13
2023-10-21T06:47:31.689Z,146.30
2023-10-21T06:50:20.306Z,239.63
2023-10-21T06:53:08.046Z,197.02
2023-10-21T06:55:55.709Z,69.15
2023-10-21T06:58:42.609Z,44.35
2023-10-21T07:01:28.613Z,23.77
2023-10-21T07:04:16.063Z,42.63
2023-10-21T07:07:02.754Z,19.55
2023-10-21T07:09:48.919Z,30.30
2023-10-21T07:12:39.955Z,26.60
2023-10-21T07:15:32.546Z,22.63
2023-10-21T07:18:19.316Z,23.98
2023-10-21T07:21:06.352Z,21.85
2023-10-21T07:23:52.422Z,20.02
2023-10-21T07:26:41.283Z,16.73
2023-10-21T07:29:26.906Z,24.00
2023-10-21T07:32:13.075Z,22.08
2023-10-21T07:34:58.958Z,18.00
2023-10-21T07:37:48.207Z,17.63
2023-10-21T07:40:33.775Z,19.52
2023-10-21T07:43:19.646Z,20.60
2023-10-21T07:46:06.065Z,20.60
2023-10-21T07:48:53.187Z,21.38
2023-10-21T07:51:39.342Z,20.40
2023-10-21T07:54:25.437Z,20.83
2023-10-21T07:57:11.091Z,23.10
2023-10-21T07:59:57.779Z,29.25
2023-10-21T08:02:44.477Z,30.95
2023-10-21T08:05:31.121Z,32.78
2023-10-21T08:08:17.016Z,32.08
2023-10-21T08:11:04.111Z,36.22
2023-10-21T08:13:52.012Z,41.72
2023-10-21T08:16:38.556Z,30.35
2023-10-21T08:19:25.992Z,90.50
2023-10-21T08:22:12.244Z,48.42
2023-10-21T08:24:59.244Z,37.33
2023-10-21T08:27:45.953Z,58.65
2023-10-21T08:30:32.114Z,96.05
2023-10-21T08:33:18.648Z,97.35
2023-10-21T08:36:05.523Z,75.38
2023-10-21T08:38:51.806Z,68.97
2023-10-21T08:41:41.357Z,65.05
2023-10-21T08:44:27.810Z,89.10
2023-10-21T08:47:15.763Z,109.78
2023-10-21T08:50:05.183Z,48.88
2023-10-21T08:52:51.830Z,54.95
2023-10-21T08:55:40.341Z,51.65
2023-10-21T08:58:32.391Z,43.20
2023-10-21T09:01:18.811Z,54.30
2023-10-21T09:04:05.590Z,36.58
2023-10-21T09:06:59.314Z,39.33
2023-10-21T09:09:45.071Z,43.95
2023-10-21T09:12:31.909Z,56.38
2023-10-21T09:15:18.105Z,39.45
2023-10-21T09:18:12.155Z,71.72
2023-10-21T09:20:58.358Z,44.40
2023-10-21T09:23:52.616Z,43.60
2023-10-21T09:26:40.384Z,34.22
2023-10-21T09:29:27.904Z,45.03
2023-10-21T09:32:15.098Z,42.17
2023-10-21T09:35:39.775Z,39.38
2023-10-21T09:38:26.112Z,37.90
2023-10-21T09:41:15.032Z,125.82
2023-10-21T09:44:04.114Z,71.95
2023-10-21T09:46:50.677Z,58.90
2023-10-21T09:49:40.710Z,51.33
2023-10-21T09:52:31.668Z,70.65
2023-10-21T09:55:19.334Z,97.32
2023-10-21T09:58:06.476Z,73.55
2023-10-21T10:00:52.510Z,97.72
2023-10-21T10:03:40.591Z,95.10
2023-10-21T10:06:30.534Z,50.30
2023-10-21T10:09:23.401Z,78.97
2023-10-21T10:12:25.380Z,150.63
2023-10-21T10:15:38.949Z,165.85
2023-10-21T10:18:26.673Z,192.93
2023-10-21T10:21:16.331Z,120.03
2023-10-21T10:24:05.217Z,58.85
2023-10-21T10:26:53.134Z,115.63
2023-10-21T10:29:39.225Z,146.25
2023-10-21T10:32:30.837Z,80.32
2023-10-21T10:35:34.078Z,95.70
2023-10-21T10:38:33.689Z,170.07
2023-10-21T10:41:20.191Z,104.10
2023-10-21T10:44:07.385Z,109.32
2023-10-21T10:46:54.993Z,83.28
2023-10-21T10:50:00.960Z,51.50
2023-10-21T10:52:47.506Z,87.72
2023-10-21T10:55:33.950Z,75.15
2023-10-21T10:58:20.121Z,70.00
2023-10-21T11:01:09.315Z,63.88
2023-10-21T11:04:01.983Z,58.95
2023-10-21T11:06:49.097Z,56.83
2023-10-21T11:09:35.274Z,68.47
2023-10-21T11:12:21.812Z,53.80
2023-10-21T11:15:08.216Z,51.65
2023-10-21T11:17:55.132Z,81.80
2023-10-21T11:20:48.372Z,88.65
2023-10-21T11:23:38.789Z,65.72
2023-10-21T11:26:24.305Z,69.25
2023-10-21T11:29:18.931Z,65.32
2023-10-21T11:32:05.175Z,79.90
2023-10-21T11:34:51.127Z,65.22
2023-10-21T11:37:43.738Z,113.57
2023-10-21T11:40:31.357Z,114.60
2023-10-21T11:43:18.908Z,85.28
2023-10-21T11:46:06.998Z,85.93
2023-10-21T11:48:52.854Z,108.35
2023-10-21T11:51:39.368Z,94.13
2023-10-21T11:54:34.869Z,81.32
2023-10-21T11:57:41.309Z,75.63
2023-10-21T12:00:47.997Z,82.28
2023-10-21T12:03:53.413Z,70.30
2023-10-21T12:07:11.574Z,79.03
2023-10-21T12:10:10.086Z,76.82
2023-10-21T12:13:11.057Z,66.57
2023-10-21T12:16:16.465Z,70.03
2023-10-21T12:19:20.841Z,76.53
2023-10-21T12:22:26.713Z,70.90
2023-10-21T12:25:36.637Z,63.20
2023-10-21T12:28:34.822Z,66.68
2023-10-21T12:31:27.104Z,61.58
2023-10-21T12:34:31.839Z,62.97
2023-10-21T12:37:21.675Z,54.80
2023-10-21T12:40:34.541Z,54.50
2023-10-21T12:43:25.783Z,59.28
2023-10-21T12:46:23.606Z,54.63
2023-10-21T12:49:26.008Z,51.83
2023-10-21T12:52:13.796Z,51.28
2023-10-21T12:55:00.892Z,49.55
2023-10-21T12:57:51.493Z,68.40
2023-10-21T13:00:38.168Z,48.33
2023-10-21T13:03:24.988Z,49.05
2023-10-21T13:06:11.294Z,52.03
2023-10-21T13:08:58.345Z,48.28
2023-10-21T13:11:43.902Z,48.85
2023-10-21T13:14:29.896Z,51.80
2023-10-21T13:17:15.576Z,50.45
2023-10-21T13:20:01.380Z,45.72
2023-10-21T13:22:49.426Z,46.85
2023-10-21T13:25:37.539Z,47.33
2023-10-21T13:28:23.374Z,81.22
2023-10-21T13:31:10.549Z,64.80
2023-10-21T13:33:56.717Z,68.00
2023-10-21T13:36:43.016Z,56.53
2023-10-21T13:39:32.070Z,60.72
2023-10-21T13:42:18.943Z,52.65
2023-10-21T13:45:06.953Z,57.97
2023-10-21T13:47:57.135Z,59.13
2023-10-21T13:50:44.423Z,90.03
2023-10-21T13:53:33.753Z,90.78
2023-10-21T13:56:19.889Z,59.80
2023-10-21T13:59:17.071Z,80.57
2023-10-21T14:02:02.877Z,75.53
2023-10-21T14:04:49.345Z,65.30
2023-10-21T14:07:35.607Z,68.20
2023-10-21T14:10:21.949Z,91.28
2023-10-21T14:13:09.212Z,80.70
2023-10-21T14:15:59.213Z,83.07
2023-10-21T14:18:46.036Z,70.10
2023-10-21T14:21:34.347Z,99.85
2023-10-21T14:24:20.659Z,76.95
2023-10-21T14:27:09.427Z,74.38
2023-10-21T14:30:11.376Z,70.28
2023-10-21T14:32:57.545Z,91.60
2023-10-21T14:35:45.444Z,103.63
2023-10-21T14:38:31.764Z,107.22
2023-10-21T14:41:17.827Z,89.80
2023-10-21T14:44:04.409Z,117.43
2023-10-21T14:46:50.420Z,141.40
2023-10-21T14:49:37.202Z,161.88
2023-10-21T14:52:24.184Z,139.85
2023-10-21T14:55:10.460Z,122.30
2023-10-21T14:57:56.193Z,126.20
2023-10-21T15:00:43.944Z,140.75
2023-10-21T15:03:30.462Z,177.75
2023-10-21T15:06:16.667Z,150.05
2023-10-21T15:09:02.823Z,144.60
2023-10-21T15:11:49.212Z,150.40
2023-10-21T15:14:45.782Z,147.27
2023-10-21T15:17:42.341Z,146.18
2023-10-21T15:20:29.956Z,111.40
2023-10-21T15:23:15.978Z,96.68
2023-10-21T15:26:02.105Z,103.80
2023-10-21T15:28:48.551Z,104.60
2023-10-21T15:31:36.477Z,113.13
2023-10-21T15:34:25.046Z,124.93
2023-10-21T15:37:11.646Z,126.25
2023-10-21T15:39:57.965Z,200.18
2023-10-21T15:42:45.069Z,149.40
2023-10-21T15:45:31.588Z,112.38
2023-10-21T15:48:17.447Z,159.55
2023-10-21T15:51:15.016Z,138.18
2023-10-21T15:54:01.282Z,112.78
2023-10-21T15:56:50.352Z,109.35
2023-10-21T15:59:36.373Z,142.23
2023-10-21T16:02:23.379Z,128.45
2023-10-21T16:05:10.034Z,150.40
2023-10-21T16:07:58.207Z,158.23
2023-10-21T16:10:45.139Z,147.50
2023-10-21T16:13:31.658Z,139.43
2023-10-21T16:16:22.960Z,219.25
2023-10-21T16:19:09.690Z,326.30
2023-10-21T16:21:55.558Z,196.77
2023-10-21T16:24:41.514Z,170.57
2023-10-21T16:27:27.689Z,234.45
2023-10-21T16:30:14.104Z,213.80
2023-10-21T16:33:00.284Z,348.70
2023-10-21T16:35:47.705Z,258.80
2023-10-21T16:38:33.607Z,346.30
2023-10-21T16:41:20.062Z,259.48
2023-10-21T16:44:05.796Z,208.52
2023-10-21T16:46:52.187Z,219.00
2023-10-21T16:49:38.584Z,266.67
2023-10-21T16:52:27.116Z,220.60
2023-10-21T16:55:13.384Z,261.67
2023-10-21T16:57:59.660Z,202.27
2023-10-21T17:00:45.426Z,260.08
2023-10-21T17:03:32.042Z,464.00
2023-10-21T17:06:18.232Z,599.67
2023-10-21T17:09:07.279Z,464.75
2023-10-21T17:11:53.079Z,345.45
2023-10-21T17:14:39.467Z,316.30
2023-10-21T17:17:26.842Z,295.98
2023-10-21T17:20:13.320Z,288.60
2023-10-21T17:22:59.678Z,279.25
2023-10-21T17:25:47.376Z,298.15
2023-10-21T17:28:33.980Z,296.08
2023-10-21T17:31:20.275Z,276.02
2023-10-21T17:34:06.473Z,273.77
2023-10-21T17:36:52.672Z,296.35
2023-10-21T17:39:38.847Z,259.67
2023-10-21T17:42:25.213Z,405.88
2023-10-21T17:45:11.495Z,277.10
2023-10-21T17:47:58.318Z,630.78
2023-10-21T17:50:44.627Z,346.42
2023-10-21T17:53:30.406Z,336.25
2023-10-21T17:56:16.424Z,360.50
2023-10-21T17:59:02.501Z,258.23
2023-10-21T18:01:48.736Z,269.95
2023-10-21T18:04:35.311Z,267.33
2023-10-21T18:07:23.774Z,255.38
2023-10-21T18:10:10.444Z,300.38
2023-10-21T18:12:56.860Z,278.35
2023-10-21T18:15:42.932Z,372.35
2023-10-21T18:18:29.367Z,420.33
2023-10-21T18:21:16.227Z,321.65
2023-10-21T18:24:02.958Z,323.60
2023-10-21T18:26:50.578Z,386.48
2023-10-21T18:29:36.852Z,312.88
2023-10-21T18:32:23.778Z,282.60
2023-10-21T18:35:09.447Z,262.38
2023-10-21T18:38:00.359Z,258.77
2023-10-21T18:40:47.660Z,251.70
2023-10-21T18:43:35.000Z,201.50
2023-10-21T18:46:21.396Z,208.10
2023-10-21T18:49:08.519Z,207.82
2023-10-21T18:51:54.745Z,210.07
2023-10-21T18:54:42.847Z,281.90
2023-10-21T19:01:09.662Z,271.95
2023-10-21T19:07:02.071Z,273.77
2023-10-21T19:09:47.799Z,247.73
2023-10-21T19:12:34.304Z,312.55
2023-10-21T19:15:20.524Z,295.65
2023-10-21T19:18:09.045Z,248.32
2023-10-21T19:20:55.029Z,250.32
2023-10-21T19:23:41.904Z,279.98
2023-10-21T19:26:28.264Z,369.73
2023-10-21T19:29:14.672Z,303.67
2023-10-21T19:32:01.329Z,250.55
2023-10-21T19:34:47.763Z,219.65
2023-10-21T19:37:34.483Z,210.85
2023-10-21T19:40:22.136Z,199.45
2023-10-21T19:43:08.477Z,179.70
2023-10-21T19:45:54.960Z,173.68
2023-10-21T19:48:40.985Z,163.55
2023-10-21T19:51:27.804Z,163.30
2023-10-21T19:54:13.706Z,164.77
2023-10-21T19:57:00.395Z,158.82
2023-10-21T19:59:46.098Z,161.43
2023-10-21T20:02:32.549Z,142.02
2023-10-21T20:05:18.173Z,167.85
2023-10-21T20:08:05.093Z,160.20
2023-10-21T20:11:05.296Z,135.77
2023-10-21T20:13:58.063Z,179.05
2023-10-21T20:16:49.059Z,171.85
2023-10-21T20:19:35.744Z,195.35
2023-10-21T20:22:21.935Z,186.88
2023-10-21T20:25:09.628Z,210.00
2023-10-21T20:27:55.936Z,153.23
2023-10-21T20:30:46.835Z,150.90
2023-10-21T20:33:34.606Z,155.27
2023-10-21T20:36:22.662Z,155.05
2023-10-21T20:39:09.984Z,150.63
2023-10-21T20:42:00.286Z,138.27
2023-10-21T20:44:49.410Z,171.00
2023-10-21T20:47:35.609Z,175.38
2023-10-21T20:50:21.681Z,161.52
2023-10-21T20:53:08.385Z,238.65
2023-10-21T20:55:54.988Z,157.43
2023-10-21T20:58:41.387Z,162.07
2023-10-21T21:01:36.904Z,181.40
2023-10-21T21:04:25.382Z,224.00
2023-10-21T21:07:10.968Z,326.65
2023-10-21T21:10:02.775Z,334.27
2023-10-21T21:12:51.864Z,360.75
2023-10-21T21:15:38.707Z,275.02
2023-10-21T21:18:25.989Z,252.05
2023-10-21T21:21:13.281Z,207.02
2023-10-21T21:23:59.074Z,287.40
2023-10-21T21:26:47.408Z,218.75
2023-10-21T21:29:33.251Z,269.30
2023-10-21T21:32:19.686Z,297.83
2023-10-21T21:35:05.741Z,243.23
2023-10-21T21:37:52.042Z,276.35
2023-10-21T21:40:38.300Z,199.55
2023-10-21T21:43:24.319Z,313.77
2023-10-21T21:46:23.306Z,280.48
2023-10-21T21:49:09.679Z,291.90
2023-10-21T21:51:55.374Z,281.45
2023-10-21T21:54:43.624Z,242.30
2023-10-21T21:57:29.359Z,218.20
2023-10-21T22:00:30.869Z,280.00
2023-10-21T22:03:16.549Z,200.82
2023-10-21T22:06:03.900Z,179.43
2023-10-21T22:08:49.545Z,152.82
2023-10-21T22:11:35.964Z,218.98
2023-10-21T22:14:23.299Z,294.67
2023-10-21T22:17:09.780Z,292.00
2023-10-21T22:19:56.408Z,285.83
2023-10-21T22:22:42.547Z,266.50
2023-10-21T22:25:29.175Z,199.23
2023-10-21T22:28:16.058Z,257.25
2023-10-21T22:31:05.397Z,258.85
2023-10-21T22:33:51.816Z,231.48
2023-10-21T22:36:37.907Z,150.13
2023-10-21T22:39:24.469Z,166.45
2023-10-21T22:42:10.318Z,173.35
2023-10-21T22:44:57.037Z,190.82
2023-10-21T22:47:44.939Z,210.57
2023-10-21T22:50:31.466Z,254.55
2023-10-21T22:53:19.030Z,218.27
2023-10-21T22:56:06.491Z,207.02
2023-10-21T22:58:52.722Z,278.60
2023-10-21T23:01:40.405Z,231.48
2023-10-21T23:04:26.954Z,240.27
2023-10-21T23:07:13.646Z,204.52
2023-10-21T23:10:00.399Z,190.15
2023-10-21T23:12:52.301Z,166.73
2023-10-21T23:15:45.029Z,139.25
2023-10-21T23:18:31.390Z,113.22
2023-10-21T23:21:17.347Z,114.75
2023-10-21T23:24:03.840Z,119.45
2023-10-21T23:26:49.413Z,112.72
2023-10-21T23:29:35.764Z,122.07
2023-10-21T23:32:21.593Z,114.35
2023-10-21T23:35:09.357Z,155.07
2023-10-21T23:37:56.248Z,218.98
2023-10-21T23:40:43.719Z,245.80
2023-10-21T23:43:29.219Z,172.07
2023-10-21T23:46:15.393Z,141.85
2023-10-21T23:49:01.736Z,367.25
2023-10-21T23:51:48.024Z,140.60
2023-10-21T23:54:35.338Z,158.55
2023-10-21T23:57:21.602Z,479.70
